createdAt,value
2023-11-08T00:01:04.879Z,12.50
2023-11-08T00:04:07.854Z,15.05
2023-11-08T00:07:10.732Z,11.88
2023-11-08T00:10:15.207Z,12.25
2023-11-08T00:13:21.513Z,13.10
2023-11-08T00:16:23.884Z,11.13
2023-11-08T00:19:26.497Z,11.48
2023-11-08T00:22:28.835Z,10.30
2023-11-08T00:25:31.168Z,11.90
2023-11-08T00:28:33.962Z,13.68
2023-11-08T00:31:36.248Z,10.77
2023-11-08T00:34:38.831Z,12.43
2023-11-08T00:37:41.218Z,13.50
2023-11-08T00:40:43.502Z,10.07
2023-11-08T00:43:46.333Z,11.75
2023-11-08T00:46:48.826Z,12.90
2023-11-08T00:49:51.317Z,14.75
2023-11-08T00:52:54.914Z,12.93
2023-11-08T00:55:57.280Z,9.48
2023-11-08T00:58:59.621Z,15.95
2023-11-08T01:02:01.962Z,15.05
2023-11-08T01:05:04.501Z,13.32
2023-11-08T01:08:07.052Z,13.52
2023-11-08T01:11:09.337Z,14.10
2023-11-08T01:14:11.866Z,11.77
2023-11-08T01:17:14.269Z,10.10
2023-11-08T01:20:16.645Z,9.80
2023-11-08T01:23:18.949Z,10.27
2023-11-08T01:26:21.821Z,12.05
2023-11-08T01:29:24.101Z,13.52
2023-11-08T01:32:26.515Z,10.45
2023-11-08T01:35:29.028Z,10.30
2023-11-08T01:38:32.153Z,12.27
2023-11-08T01:41:34.394Z,11.63
2023-11-08T01:44:36.675Z,10.77
2023-11-08T01:47:40.701Z,10.77
2023-11-08T01:50:43.119Z,10.93
2023-11-08T01:53:45.543Z,9.68
2023-11-08T01:56:48.462Z,11.52
2023-11-08T01:59:52.527Z,13.07
2023-11-08T02:02:54.901Z,12.43
2023-11-08T02:05:58.741Z,11.38
2023-11-08T02:09:04.671Z,12.65
2023-11-08T02:12:07.317Z,11.82
2023-11-08T02:15:12.810Z,10.95
2023-11-08T02:18:15.247Z,10.25
2023-11-08T02:21:19.283Z,10.18
2023-11-08T02:27:24.773Z,14.95
2023-11-08T02:30:27.525Z,11.27
2023-11-08T02:33:29.994Z,11.52
2023-11-08T02:36:32.742Z,14.43
2023-11-08T02:39:35.142Z,13.65
2023-11-08T02:42:40.832Z,11.38
2023-11-08T02:45:43.255Z,14.30
2023-11-08T02:48:45.696Z,12.02
2023-11-08T02:51:48.167Z,11.88
2023-11-08T02:54:52.596Z,11.13
2023-11-08T02:57:55.155Z,12.57
2023-11-08T03:00:58.248Z,13.45
2023-11-08T03:04:00.666Z,11.90
2023-11-08T03:07:04.082Z,16.15
2023-11-08T03:10:06.835Z,14.37
2023-11-08T03:13:09.114Z,13.75
2023-11-08T03:16:11.825Z,12.27
2023-11-08T03:19:14.181Z,11.55
2023-11-08T03:22:17.487Z,11.23
2023-11-08T03:25:19.795Z,15.55
2023-11-08T03:28:22.705Z,12.57
2023-11-08T03:31:25.081Z,10.30
2023-11-08T03:34:28.483Z,11.50
2023-11-08T03:37:30.869Z,11.75
2023-11-08T03:40:33.161Z,10.80
2023-11-08T03:43:35.565Z,12.63
2023-11-08T03:46:37.999Z,11.82
2023-11-08T03:49:40.912Z,10.93
2023-11-08T03:52:43.283Z,10.60
2023-11-08T03:55:45.684Z,10.20
2023-11-08T03:58:48.016Z,12.95
2023-11-08T04:01:50.268Z,14.57
2023-11-08T04:04:52.826Z,11.68
2023-11-08T04:07:55.198Z,11.63
2023-11-08T04:10:57.556Z,10.98
2023-11-08T04:14:01.145Z,9.15
2023-11-08T04:17:04.020Z,10.07
2023-11-08T04:20:07.576Z,14.50
2023-11-08T04:23:09.868Z,8.52
2023-11-08T04:26:12.259Z,11.20
2023-11-08T04:29:15.151Z,10.02
2023-11-08T04:32:17.421Z,12.15
2023-11-08T04:35:19.846Z,13.00
2023-11-08T04:38:22.155Z,13.45
2023-11-08T04:41:24.425Z,13.05
2023-11-08T04:44:26.812Z,14.88
2023-11-08T04:47:29.271Z,13.43
2023-11-08T04:50:31.632Z,15.48
2023-11-08T04:53:34.251Z,13.27
2023-11-08T04:56:36.787Z,11.82
2023-11-08T04:59:39.165Z,14.45
2023-11-08T05:02:42.871Z,15.18
2023-11-08T05:05:45.183Z,14.35
2023-11-08T05:08:47.487Z,12.98
2023-11-08T05:11:51.119Z,14.15
2023-11-08T05:14:54.515Z,14.90
2023-11-08T05:18:00.529Z,11.95
2023-11-08T05:21:02.889Z,17.52
2023-11-08T05:24:05.314Z,14.20
2023-11-08T05:27:07.596Z,15.15
2023-11-08T05:30:10.535Z,17.15
2023-11-08T05:33:12.964Z,15.65
2023-11-08T05:36:17.479Z,18.00
2023-11-08T05:39:26.278Z,16.10
2023-11-08T05:42:29.655Z,16.20
2023-11-08T05:45:32.014Z,12.35
2023-11-08T05:48:34.396Z,13.73
2023-11-08T05:51:36.881Z,11.98
2023-11-08T05:54:39.240Z,15.13
2023-11-08T05:57:41.993Z,14.25
2023-11-08T06:00:44.989Z,16.77
2023-11-08T06:03:48.271Z,26.92
2023-11-08T06:06:51.881Z,37.90
2023-11-08T06:09:54.949Z,20.10
2023-11-08T06:12:58.110Z,23.65
2023-11-08T06:16:00.733Z,27.83
2023-11-08T06:19:03.303Z,27.92
2023-11-08T06:22:05.821Z,19.98
2023-11-08T06:25:08.794Z,19.30
2023-11-08T06:28:11.395Z,16.17
2023-11-08T06:31:14.742Z,18.85
2023-11-08T06:34:17.065Z,16.43
2023-11-08T06:37:19.385Z,20.63
2023-11-08T06:40:21.818Z,14.38
2023-11-08T06:43:24.331Z,18.60
2023-11-08T06:46:26.688Z,18.48
2023-11-08T06:49:29.136Z,19.15
2023-11-08T06:52:31.584Z,16.30
2023-11-08T06:55:39.122Z,21.00
2023-11-08T06:58:42.168Z,19.52
2023-11-08T07:01:44.509Z,23.42
2023-11-08T07:04:47.018Z,19.50
2023-11-08T07:07:49.252Z,22.38
2023-11-08T07:10:54.521Z,22.63
2023-11-08T07:13:57.046Z,18.63
2023-11-08T07:16:59.423Z,15.35
2023-11-08T07:20:01.796Z,10.70
2023-11-08T07:23:04.445Z,13.65
2023-11-08T07:26:06.728Z,15.05
2023-11-08T07:29:09.305Z,19.42
2023-11-08T07:32:14.331Z,14.23
2023-11-08T07:35:16.607Z,24.48
2023-11-08T07:38:18.995Z,15.90
2023-11-08T07:41:21.339Z,11.85
2023-11-08T07:44:23.672Z,11.63
2023-11-08T07:47:26.235Z,13.57
2023-11-08T07:50:29.612Z,10.75
2023-11-08T07:53:32.373Z,9.30
2023-11-08T07:56:34.712Z,10.65
2023-11-08T07:59:37.005Z,10.68
2023-11-08T08:03:17.251Z,11.55
2023-11-08T08:06:21.343Z,13.63
2023-11-08T08:09:23.991Z,10.75
2023-11-08T08:12:30.873Z,12.60
2023-11-08T08:15:35.979Z,23.35
2023-11-08T08:18:38.479Z,12.45
2023-11-08T08:21:40.941Z,11.15
2023-11-08T08:24:43.293Z,14.30
2023-11-08T08:27:45.774Z,11.65
2023-11-08T08:30:48.357Z,9.20
2023-11-08T08:33:51.647Z,10.40
2023-11-08T08:36:54.101Z,10.83
2023-11-08T08:39:56.705Z,9.45
2023-11-08T08:42:59.225Z,10.38
2023-11-08T08:46:01.580Z,9.80
2023-11-08T08:49:04.025Z,9.02
2023-11-08T08:52:07.257Z,9.35
2023-11-08T08:55:16.078Z,11.07
2023-11-08T08:58:18.500Z,10.63
2023-11-08T09:01:21.461Z,8.85
2023-11-08T09:04:24.816Z,11.25
2023-11-08T09:07:27.200Z,6.90
2023-11-08T09:10:29.443Z,7.68
2023-11-08T09:13:31.750Z,8.85
2023-11-08T09:16:36.089Z,8.70
2023-11-08T09:19:38.436Z,7.97
2023-11-08T09:22:42.358Z,9.15
2023-11-08T09:25:44.959Z,10.52
2023-11-08T09:28:47.353Z,9.65
2023-11-08T09:31:49.700Z,6.97
2023-11-08T09:34:52.187Z,8.15
2023-11-08T09:37:56.260Z,5.63
2023-11-08T09:40:59.347Z,9.00
2023-11-08T09:44:02.766Z,7.38
2023-11-08T09:47:05.647Z,6.65
2023-11-08T09:50:13.983Z,8.32
2023-11-08T09:53:17.289Z,10.05
2023-11-08T09:56:19.899Z,8.45
2023-11-08T09:59:22.905Z,7.03
2023-11-08T10:02:25.854Z,7.97
2023-11-08T10:05:28.800Z,6.88
2023-11-08T10:08:31.984Z,7.28
2023-11-08T10:11:36.865Z,8.60
2023-11-08T10:14:45.748Z,6.60
2023-11-08T10:19:31.421Z,8.18
2023-11-08T10:21:18.534Z,7.00
2023-11-08T10:24:20.927Z,5.78
2023-11-08T10:27:24.182Z,6.65
2023-11-08T10:30:28.158Z,8.18
2023-11-08T10:33:30.523Z,7.65
2023-11-08T10:36:36.317Z,6.75
2023-11-08T10:39:38.727Z,8.50
2023-11-08T10:42:42.312Z,6.63
2023-11-08T10:45:44.715Z,6.40
2023-11-08T10:48:47.120Z,14.25
2023-11-08T10:51:51.476Z,18.42
2023-11-08T10:54:53.890Z,10.98
2023-11-08T10:58:02.394Z,14.13
2023-11-08T11:01:05.621Z,7.85
2023-11-08T11:04:15.341Z,8.43
2023-11-08T11:07:18.932Z,4.55
2023-11-08T11:10:21.316Z,8.27
2023-11-08T11:13:34.383Z,6.47
2023-11-08T11:16:43.030Z,6.20
2023-11-08T11:19:46.262Z,10.00
2023-11-08T11:22:49.745Z,4.17
2023-11-08T11:25:52.172Z,4.13
2023-11-08T11:28:58.726Z,4.70
2023-11-08T11:32:05.040Z,4.57
2023-11-08T11:35:07.740Z,5.57
2023-11-08T11:38:11.515Z,3.22
2023-11-08T11:41:26.300Z,4.28
2023-11-08T11:44:45.904Z,3.50
2023-11-08T11:47:52.866Z,3.25
2023-11-08T11:50:56.244Z,4.68
2023-11-08T11:53:59.762Z,3.00
2023-11-08T11:57:02.156Z,3.65
2023-11-08T12:00:06.546Z,3.78
2023-11-08T12:03:13.022Z,3.90
2023-11-08T12:06:15.461Z,3.80
2023-11-08T12:09:17.867Z,4.97
2023-11-08T12:12:45.727Z,5.97
2023-11-08T12:16:01.781Z,3.00
2023-11-08T12:19:04.402Z,3.60
2023-11-08T12:22:06.994Z,4.97
2023-11-08T12:25:11.278Z,4.13
2023-11-08T12:28:13.799Z,8.60
2023-11-08T12:31:21.531Z,7.00
2023-11-08T12:34:24.009Z,4.85
2023-11-08T12:37:26.386Z,7.43
2023-11-08T12:40:29.118Z,7.20
2023-11-08T12:43:59.367Z,6.30
2023-11-08T12:47:08.268Z,6.63
2023-11-08T12:50:14.931Z,3.35
2023-11-08T12:53:17.490Z,5.18
2023-11-08T12:56:20.729Z,5.20
2023-11-08T12:59:24.263Z,5.57
2023-11-08T13:02:26.692Z,2.50
2023-11-08T13:05:29.272Z,4.38
2023-11-08T13:08:32.562Z,3.70
2023-11-08T13:11:35.088Z,3.60
2023-11-08T13:14:37.564Z,5.10
2023-11-08T13:17:39.925Z,2.60
2023-11-08T13:20:46.807Z,2.83
2023-11-08T13:24:02.621Z,4.55
2023-11-08T13:27:09.682Z,4.85
2023-11-08T13:30:14.295Z,6.63
2023-11-08T13:33:16.824Z,6.07
2023-11-08T13:36:27.484Z,5.50
2023-11-08T13:39:30.327Z,5.32
2023-11-08T13:42:32.635Z,4.00
2023-11-08T13:45:35.484Z,5.53
2023-11-08T13:48:38.483Z,4.50
2023-11-08T13:51:41.099Z,6.15
2023-11-08T13:54:44.257Z,5.03
2023-11-08T13:57:50.432Z,2.92
2023-11-08T14:00:52.928Z,5.40
2023-11-08T14:03:55.555Z,3.88
2023-11-08T14:06:58.518Z,5.25
2023-11-08T14:10:01.417Z,4.80
2023-11-08T14:13:04.818Z,6.88
2023-11-08T14:16:08.970Z,7.28
2023-11-08T14:19:11.559Z,12.85
2023-11-08T14:22:14.338Z,11.52
2023-11-08T14:25:16.674Z,11.80
2023-11-08T14:28:20.112Z,6.07
2023-11-08T14:31:25.225Z,7.07
2023-11-08T14:43:42.576Z,5.72
2023-11-08T14:46:45.145Z,5.47
2023-11-08T14:49:48.506Z,5.90
2023-11-08T14:52:51.539Z,7.23
2023-11-08T14:55:55.037Z,6.47
2023-11-08T14:58:57.712Z,6.22
2023-11-08T15:02:00.419Z,6.60
2023-11-08T15:05:04.011Z,9.05
2023-11-08T15:09:48.527Z,7.82
2023-11-08T15:11:29.721Z,7.57
2023-11-08T15:14:32.356Z,8.48
2023-11-08T15:17:35.040Z,9.50
2023-11-08T15:20:38.441Z,17.23
2023-11-08T15:23:42.314Z,9.27
2023-11-08T15:26:45.098Z,9.32
2023-11-08T15:29:47.789Z,6.32
2023-11-08T15:32:50.433Z,9.35
2023-11-08T15:35:53.595Z,6.97
2023-11-08T15:38:56.300Z,8.48
2023-11-08T15:41:59.001Z,11.88
2023-11-08T15:45:01.753Z,11.93
2023-11-08T15:48:04.840Z,10.15
2023-11-08T15:51:07.688Z,12.52
2023-11-08T15:54:10.973Z,11.05
2023-11-08T15:57:13.685Z,12.03
2023-11-08T16:00:16.608Z,7.50
2023-11-08T16:03:19.282Z,11.63
2023-11-08T16:06:23.903Z,10.30
2023-11-08T16:09:31.538Z,8.15
2023-11-08T16:12:35.174Z,8.82
2023-11-08T16:15:39.461Z,10.20
2023-11-08T16:18:42.376Z,9.38
2023-11-08T16:21:50.544Z,10.65
2023-11-08T16:24:53.346Z,15.02
2023-11-08T16:27:59.363Z,10.27
2023-11-08T16:32:29.955Z,12.77
2023-11-08T16:34:25.416Z,15.32
2023-11-08T16:37:28.847Z,17.13
2023-11-08T16:40:35.005Z,20.02
2023-11-08T16:43:37.717Z,14.32
2023-11-08T16:46:40.577Z,17.55
2023-11-08T16:49:47.615Z,12.93
2023-11-08T16:52:50.725Z,13.20
2023-11-08T16:55:53.333Z,15.68
2023-11-08T16:59:01.272Z,20.10
2023-11-08T17:02:04.386Z,13.77
2023-11-08T17:05:07.084Z,15.35
2023-11-08T17:12:17.902Z,18.33
2023-11-08T17:15:21.659Z,14.23
2023-11-08T17:18:23.979Z,16.98
2023-11-08T17:21:31.136Z,15.52
2023-11-08T17:24:33.607Z,14.75
2023-11-08T17:27:35.876Z,12.70
2023-11-08T17:30:38.180Z,16.55
2023-11-08T17:33:40.536Z,11.95
2023-11-08T17:36:42.995Z,14.73
2023-11-08T17:39:45.502Z,9.50
2023-11-08T17:42:47.922Z,10.82
2023-11-08T17:45:50.244Z,10.23
2023-11-08T17:48:52.733Z,13.93
2023-11-08T17:51:55.056Z,11.43
2023-11-08T17:54:59.364Z,9.35
2023-11-08T17:58:01.878Z,10.15
2023-11-08T18:01:13.293Z,11.57
2023-11-08T18:04:15.803Z,12.75
2023-11-08T18:07:19.435Z,8.82
2023-11-08T18:10:22.192Z,10.77
2023-11-08T18:13:24.820Z,9.00
2023-11-08T18:16:27.157Z,11.93
2023-11-08T18:19:29.591Z,12.73
2023-11-08T18:22:32.995Z,11.05
2023-11-08T18:25:35.502Z,12.07
2023-11-08T18:28:37.952Z,11.88
2023-11-08T18:31:40.441Z,13.27
2023-11-08T18:34:43.112Z,19.25
2023-11-08T18:37:45.471Z,19.52
2023-11-08T18:40:49.132Z,15.73
2023-11-08T18:43:54.934Z,14.20
2023-11-08T18:46:57.304Z,18.05
2023-11-08T18:50:00.283Z,13.32
2023-11-08T18:53:02.598Z,13.10
2023-11-08T18:56:08.730Z,12.88
2023-11-08T18:59:13.475Z,11.90
2023-11-08T19:02:15.942Z,12.07
2023-11-08T19:05:20.570Z,13.82
2023-11-08T19:08:23.469Z,15.07
2023-11-08T19:11:29.299Z,12.55
2023-11-08T19:14:31.680Z,17.05
2023-11-08T19:17:34.002Z,15.35
2023-11-08T19:20:36.320Z,12.32
2023-11-08T19:23:38.997Z,15.38
2023-11-08T19:26:41.474Z,14.98
2023-11-08T19:29:43.773Z,13.60
2023-11-08T19:32:46.480Z,13.68
2023-11-08T19:35:49.010Z,11.50
2023-11-08T19:38:51.481Z,10.65
2023-11-08T19:41:53.851Z,14.50
2023-11-08T19:45:00.829Z,12.88
2023-11-08T19:48:03.568Z,15.73
2023-11-08T19:51:06.136Z,10.60
2023-11-08T19:54:08.626Z,12.05
2023-11-08T19:57:10.968Z,13.55
2023-11-08T20:00:13.682Z,11.88
2023-11-08T20:03:16.155Z,12.48
2023-11-08T20:06:18.648Z,11.80
2023-11-08T20:09:22.026Z,9.60
2023-11-08T20:12:24.349Z,10.23
2023-11-08T20:15:26.683Z,10.75
2023-11-08T20:18:33.191Z,11.02
2023-11-08T20:21:35.497Z,13.15
2023-11-08T20:24:37.832Z,16.52
2023-11-08T20:27:40.148Z,11.55
2023-11-08T20:30:42.508Z,14.63
2023-11-08T20:33:44.962Z,10.65
2023-11-08T20:36:47.464Z,11.75
2023-11-08T20:39:49.877Z,11.35
2023-11-08T20:42:52.986Z,11.23
2023-11-08T20:45:55.684Z,12.88
2023-11-08T20:48:58.092Z,13.10
2023-11-08T20:52:00.538Z,13.07
2023-11-08T20:55:04.334Z,11.30
2023-11-08T21:01:10.004Z,13.57
2023-11-08T21:04:13.123Z,12.52
2023-11-08T21:07:18.619Z,14.00
2023-11-08T21:10:22.436Z,13.73
2023-11-08T21:13:24.911Z,11.65
2023-11-08T21:16:27.297Z,13.60
2023-11-08T21:19:29.709Z,13.63
2023-11-08T21:22:32.432Z,15.13
2023-11-08T21:25:34.785Z,16.02
2023-11-08T21:28:37.204Z,11.43
2023-11-08T21:31:39.642Z,10.85
2023-11-08T21:34:43.453Z,12.20
2023-11-08T21:37:45.920Z,11.57
2023-11-08T21:40:51.663Z,10.50
2023-11-08T21:43:54.920Z,11.75
2023-11-08T21:46:57.391Z,10.60
2023-11-08T21:49:59.838Z,10.38
2023-11-08T21:53:02.221Z,12.85
2023-11-08T21:56:04.981Z,11.13
2023-11-08T21:59:07.308Z,11.70
2023-11-08T22:02:09.757Z,10.98
2023-11-08T22:05:12.570Z,10.90
2023-11-08T22:08:14.972Z,12.95
2023-11-08T22:11:17.781Z,9.60
2023-11-08T22:14:20.199Z,8.65
2023-11-08T22:17:22.650Z,10.85
2023-11-08T22:20:24.995Z,10.60
2023-11-08T22:23:27.345Z,11.18
2023-11-08T22:26:30.575Z,10.02
2023-11-08T22:29:33.012Z,8.23
2023-11-08T22:32:35.695Z,10.73
2023-11-08T22:35:40.418Z,9.63
2023-11-08T22:38:43.278Z,9.75
2023-11-08T22:41:46.293Z,8.10
2023-11-08T22:44:48.652Z,9.43
2023-11-08T22:47:50.949Z,10.00
2023-11-08T22:50:53.251Z,11.48
2023-11-08T22:53:55.800Z,8.50
2023-11-08T22:56:58.175Z,9.52
2023-11-08T23:00:00.543Z,7.20
2023-11-08T23:03:03.806Z,8.07
2023-11-08T23:06:07.170Z,6.30
2023-11-08T23:09:09.508Z,11.77
2023-11-08T23:12:12.432Z,7.65
2023-11-08T23:15:14.743Z,9.82
2023-11-08T23:18:18.298Z,8.63
2023-11-08T23:21:21.086Z,6.60
2023-11-08T23:24:23.427Z,9.40
2023-11-08T23:27:30.594Z,11.02
2023-11-08T23:30:33.061Z,7.32
2023-11-08T23:33:36.832Z,7.10
2023-11-08T23:36:39.243Z,9.65
2023-11-08T23:39:41.537Z,9.65
2023-11-08T23:42:43.923Z,11.18
2023-11-08T23:45:46.564Z,8.13
2023-11-08T23:48:49.338Z,11.00
2023-11-08T23:51:51.758Z,8.40
2023-11-08T23:54:54.131Z,8.35
2023-11-08T23:57:56.511Z,8.55
